Dahanu, India

7:14 PM IST on July 24, 2016 (GMT +0530)
Chhatrapati Shivaji International | | Change Station

Elev 46 ft 19.10 °N, 72.86 °E | Updated 14 minutes ago

Haze
Haze
82 °F
Feels Like 90 °F
N
9
Wind Variable Wind from SSW

Today
High -- | Low -- °F
--% Chance of Precip.
Yesterday
High -- | Low -- °F
Precip. -- in
Pressure 29.62 in
Visibility 2.5 miles
Clouds Scattered Clouds 1800 ft
Scattered Clouds 2500 ft
Mostly Cloudy 10000 ft
Heat Index 90 °F
Dew Point 75 °F
Humidity 79%
Rainfall 0.00 in
Snow Depth Not available.
6:11 AM 7:19 PM
Waning Gibbous, 76% visible
METAR VABB 241330Z 21008KT 4000 HZ SCT018 SCT025 BKN100 28/24 Q1003 NOSIG
Pressure 29.62 in
Visibility 2.5 miles
Clouds Scattered Clouds 1800 ft
Scattered Clouds 2500 ft
Mostly Cloudy 10000 ft
Heat Index 90 °F
Dew Point 75 °F
Humidity 79%
Rainfall 0.00 in
Snow Depth Not available.
6:11 AM 7:19 PM
Waning Gibbous, 76% visible
METAR VABB 241330Z 21008KT 4000 HZ SCT018 SCT025 BKN100 28/24 Q1003 NOSIG

10-Day Weather Forecast

No radar image for this location.
×

Almanac

Astronomy

Jul. 24, 2016 Rise Set
Actual Time
Civil Twilight
Nautical Twilight
Astronomical Twilight
Moon
Length of Visible Light
Length of Day
Tomorrow will be .
, % of the Moon is Illuminated

Today's Extremes

Country Highs Country Lows

Community

WunderPhotos

Upload Photos

1,927,057 photos uploaded!

WunderBlog® & News

Nearby

Air Quality

  Air Quality AQ Index Pollutant
Not available.

Snow Depth

Station Depth Elevation

Earthquake Activity

City Distance Mag. Time & Date
Minimum magnitude displayed is 2.5.

Coastal Water Temperatures

Place Temperature

Stations

Nearby Weather Stations

Station Location Temp. Windchill Dew Point Humidity Wind Precip. Elev Updated Type